King Philippos — 9HA3023 — position and weather

sailwx.info

Track history (hours):
 
Tides and Currents Weather Stations Pressure Air Temp Water Temp Dewpoint Dewpoint Depression Visibility Wind Speed Wind Dir Waves Ship Positions

King Philippos

Last reported at 2017-Apr-24 12:43 UTC. Time now 2017-Apr-24 13:19 UTC.
Position N 01°38' E 102°46'.

Length 250 m; draft 7.8 m.

Type: Tanker. MMSI: 229046000.

Date/timePositionNaut miles runAvg speedWind from/ knotsBaromVisibWave heightAir tempDewpointWater temp
2017-Apr-24 12:43N 01°38' E 102°46'1812.6
2017-Apr-24 11:18N 01°46' E 102°30'412.5
2017-Apr-24 11:00N 01°48' E 102°27'33 2.0
2017-Apr-23 18:50N 02°15' E 102°07'  
2017-Apr-19 20:17N 01°56' E 102°18'411.5
2017-Apr-19 19:57N 01°54' E 102°21'511.1
2017-Apr-19 19:30N 01°52' E 102°26'611.3
2017-Apr-19 19:00N 01°49' E 102°31'611.6
2017-Apr-19 18:29N 01°47' E 102°36'611.5
2017-Apr-19 18:00N 01°44' E 102°41'5712.2
2017-Apr-19 13:19N 01°14' E 103°29'412.6
2017-Apr-19 12:59N 01°12' E 103°33'612.4
2017-Apr-19 12:31N 01°11' E 103°39'612.1
2017-Apr-19 12:01N 01°08' E 103°44'510.7
2017-Apr-19 11:31N 01°11' E 103°49'713.2
2017-Apr-19 11:00N 01°14' E 103°55'611.3
2017-Apr-19 10:30N 01°16' E 104°00'610.1
2017-Apr-19 09:54N 01°19' E 104°05'510.8
2017-Apr-19 09:27N 01°22' E 104°02'4 9.7
2017-Apr-19 09:00N 01°26' E 104°01'0 0.0
2017-Apr-17 08:48N 01°27' E 104°01'0 1.2
2017-Apr-17 08:30N 01°26' E 104°01'3 5.2
2017-Apr-17 08:01N 01°24' E 104°01'8 1.0
2017-Apr-16 23:58N 01°19' E 104°08'0 0.0
2017-Apr-16 23:25N 01°19' E 104°08'0 0.0
2017-Apr-16 20:40N 01°19' E 104°08'0 0.0
2017-Apr-16 20:28N 01°19' E 104°08'  
Track history (hours):
 
Tides and Currents Weather Stations Pressure Air Temp Water Temp Dewpoint Dewpoint Depression Visibility Wind Speed Wind Dir Waves Ship Positions

King Philippos

Last reported at 2017-Apr-24 12:43 UTC. Time now 2017-Apr-24 13:19 UTC.
Position N 01°38' E 102°46'.

Length 250 m; draft 7.8 m.

Type: Tanker. MMSI: 229046000.

Date/timePositionNaut miles runAvg speedWind from/ knotsBaromVisibWave heightAir tempDewpointWater temp
2017-Apr-24 12:43N 01°38' E 102°46'1812.6
2017-Apr-24 11:18N 01°46' E 102°30'412.5
2017-Apr-24 11:00N 01°48' E 102°27'33 2.0
2017-Apr-23 18:50N 02°15' E 102°07'  
2017-Apr-19 20:17N 01°56' E 102°18'411.5
2017-Apr-19 19:57N 01°54' E 102°21'511.1
2017-Apr-19 19:30N 01°52' E 102°26'611.3
2017-Apr-19 19:00N 01°49' E 102°31'611.6
2017-Apr-19 18:29N 01°47' E 102°36'611.5
2017-Apr-19 18:00N 01°44' E 102°41'5712.2
2017-Apr-19 13:19N 01°14' E 103°29'412.6
2017-Apr-19 12:59N 01°12' E 103°33'612.4
2017-Apr-19 12:31N 01°11' E 103°39'612.1
2017-Apr-19 12:01N 01°08' E 103°44'510.7
2017-Apr-19 11:31N 01°11' E 103°49'713.2
2017-Apr-19 11:00N 01°14' E 103°55'611.3
2017-Apr-19 10:30N 01°16' E 104°00'610.1
2017-Apr-19 09:54N 01°19' E 104°05'510.8
2017-Apr-19 09:27N 01°22' E 104°02'4 9.7
2017-Apr-19 09:00N 01°26' E 104°01'0 0.0
2017-Apr-17 08:48N 01°27' E 104°01'0 1.2
2017-Apr-17 08:30N 01°26' E 104°01'3 5.2
2017-Apr-17 08:01N 01°24' E 104°01'8 1.0
2017-Apr-16 23:58N 01°19' E 104°08'0 0.0
2017-Apr-16 23:25N 01°19' E 104°08'0 0.0
2017-Apr-16 20:40N 01°19' E 104°08'0 0.0
2017-Apr-16 20:28N 01°19' E 104°08'  

Dump ship's entire track history